Time;durP1;ratioP1;P1;durP2;ratioP2;P2;SDS_P1;SDS_P2;PMS_P1;PMS_P2;Temp;Humidity;BMP_temperature;BMP_pressure;BME280_temperature;BME280_humidity;BME280_pressure;Samples;Min_cycle;Max_cycle;Signal;HPM_P1;HPM_P2
2023/02/11 00:00:04;;;;;;;;;;;;;;;-1.88;47.97;96602.28;5026130;28;20417;-79
2023/02/11 00:02:30;;;;;;;;;;;;;;;-1.96;48.35;96599.56;5027150;28;19917;-79
2023/02/11 00:04:55;;;;;;;;;;;;;;;-2.07;48.22;96601.78;5025096;28;19917;-78
2023/02/11 00:07:21;;;;;;;;;;;;;;;-2.13;48.20;96603.81;5026054;28;20004;-79
2023/02/11 00:09:46;;;;;;;;;;;;;;;-2.14;48.46;96602.25;5026346;28;19927;-78
2023/02/11 00:12:11;;;;;;;;;;;;;;;-2.20;48.55;96603.50;5025705;28;19917;-77
2023/02/11 00:14:36;;;;;;;;;;;;;;;-2.18;48.51;96605.88;5026624;28;19954;-78
2023/02/11 00:17:02;;;;;;;;;;;;;;;-2.17;48.26;96608.28;5027267;28;19917;-78
2023/02/11 00:19:27;;;;;;;;;;;;;;;-2.17;48.44;96610.19;5024944;28;19913;-79
2023/02/11 00:21:52;;;;;;;;;;;;;;;-2.21;48.53;96603.81;5026318;28;19920;-80
2023/02/11 00:24:17;;;;;;;;;;;;;;;-2.28;48.32;96604.28;5026035;28;20526;-78
2023/02/11 00:26:43;;;;;;;;;;;;;;;-2.20;48.33;96605.41;5026278;28;20071;-78
2023/02/11 00:29:09;;;;;;;;;;;;;;;-2.17;48.30;96604.78;5025332;28;19994;-77
2023/02/11 00:31:34;;;;;;;;;;;;;;;-2.17;47.99;96602.88;5024641;28;19944;-78
2023/02/11 00:33:59;;;;;;;;;;;;;;;-2.17;48.31;96607.50;5025628;28;20439;-77
2023/02/11 00:36:25;;;;;;;;;;;;;;;-2.21;47.96;96596.53;5025097;28;19913;-76
2023/02/11 00:38:51;;;;;;;;;;;;;;;-2.20;48.15;96600.03;5024822;28;19917;-76
2023/02/11 00:41:16;;;;;;;;;;;;;;;-2.27;47.98;96599.69;5024990;28;19940;-80
2023/02/11 00:43:42;;;;;;;;;;;;;;;-2.29;48.10;96601.91;5025897;28;19917;-77
2023/02/11 00:46:07;;;;;;;;;;;;;;;-2.38;48.03;96601.88;5028774;28;19913;-77
2023/02/11 00:48:32;;;;;;;;;;;;;;;-2.44;48.27;96595.84;5035470;28;19916;-77
2023/02/11 00:50:58;;;;;;;;;;;;;;;-2.56;48.79;96589.47;5047008;28;19947;-79
2023/02/11 00:53:23;;;;;;;;;;;;;;;-2.55;48.63;96583.78;5037777;28;20338;-78
2023/02/11 00:55:48;;;;;;;;;;;;;;;-2.58;48.76;96597.88;5024852;28;19920;-76
2023/02/11 00:58:13;;;;;;;;;;;;;;;-2.57;48.76;96587.91;5024573;28;20415;-77
2023/02/11 01:00:39;;;;;;;;;;;;;;;-2.59;48.69;96585.50;5024010;28;19921;-78
2023/02/11 01:03:04;;;;;;;;;;;;;;;-2.52;48.64;96585.84;5026172;28;19920;-78
2023/02/11 01:05:29;;;;;;;;;;;;;;;-2.55;48.35;96586.47;5025440;28;19913;-80
2023/02/11 01:07:55;;;;;;;;;;;;;;;-2.50;48.14;96597.09;5026330;28;20470;-79
2023/02/11 01:10:20;;;;;;;;;;;;;;;-2.51;48.27;96584.75;5023757;28;19920;-79
2023/02/11 01:12:45;;;;;;;;;;;;;;;-2.60;48.57;96586.59;5026905;28;19925;-79
2023/02/11 01:15:11;;;;;;;;;;;;;;;-2.60;48.46;96578.53;5025654;28;19913;-79
2023/02/11 01:17:36;;;;;;;;;;;;;;;-2.54;48.33;96584.56;5024489;28;20395;-77
2023/02/11 01:20:05;;;;;;;;;;;;;;;-2.58;48.34;96587.09;5025526;28;20379;-79
2023/02/11 01:22:31;;;;;;;;;;;;;;;-2.65;48.42;96585.94;5038973;28;20783;-78
2023/02/11 01:24:56;;;;;;;;;;;;;;;-2.73;48.58;96582.13;5026365;28;19917;-78
2023/02/11 01:27:21;;;;;;;;;;;;;;;-2.69;48.74;96580.41;5007620;28;20007;-80
2023/02/11 01:29:46;;;;;;;;;;;;;;;-2.73;49.15;96588.31;5025937;28;19936;-80
2023/02/11 01:32:12;;;;;;;;;;;;;;;-2.75;49.08;96584.34;5025553;28;19917;-79
2023/02/11 01:34:37;;;;;;;;;;;;;;;-2.70;48.88;96579.59;5025565;28;19967;-79
2023/02/11 01:37:02;;;;;;;;;;;;;;;-2.74;48.94;96575.97;5025454;28;20372;-79
2023/02/11 01:39:27;;;;;;;;;;;;;;;-2.68;49.01;96563.94;5024585;28;19917;-79
2023/02/11 01:41:53;;;;;;;;;;;;;;;-2.66;48.81;96569.00;5025771;28;19935;-79
2023/02/11 01:44:24;;;;;;;;;;;;;;;-2.66;48.74;96569.00;5029008;28;20433;-78
2023/02/11 01:46:49;;;;;;;;;;;;;;;-2.66;48.79;96566.31;5026686;28;19927;-78
2023/02/11 01:49:19;;;;;;;;;;;;;;;-2.61;48.65;96563.47;5025699;28;20003;-77
2023/02/11 01:51:50;;;;;;;;;;;;;;;-2.63;48.48;96560.31;5024060;28;20544;-79
2023/02/11 01:59:45;;;;;;;;;;;;;;;-2.73;48.79;96563.28;5044394;28;19920;-78
2023/02/11 02:02:11;;;;;;;;;;;;;;;-2.78;48.80;96566.91;5044916;28;20342;-78
2023/02/11 02:04:41;;;;;;;;;;;;;;;-2.83;49.04;96561.66;5045162;28;19917;-79
2023/02/11 02:07:11;;;;;;;;;;;;;;;-2.80;48.92;96571.03;5020201;28;20430;-79
2023/02/11 02:09:41;;;;;;;;;;;;;;;-2.80;48.78;96571.81;5023793;28;19913;-79
2023/02/11 02:12:06;;;;;;;;;;;;;;;-2.79;48.36;96573.41;5023663;28;19967;-78
2023/02/11 02:14:36;;;;;;;;;;;;;;;-2.75;48.58;96565.50;5025128;28;19928;-79
2023/02/11 02:17:01;;;;;;;;;;;;;;;-2.75;48.41;96555.53;5024549;28;19974;-78
2023/02/11 02:19:35;;;;;;;;;;;;;;;-2.70;48.49;96568.03;5022938;28;20477;-77
2023/02/11 02:22:19;;;;;;;;;;;;;;;-2.66;47.90;96563.63;5025755;28;19917;-78
2023/02/11 02:24:50;;;;;;;;;;;;;;;-2.59;48.12;96568.56;5023510;28;20007;-78
2023/02/11 02:27:23;;;;;;;;;;;;;;;-2.59;48.05;96568.56;5023223;28;19919;-78
2023/02/11 02:29:52;;;;;;;;;;;;;;;-2.60;47.89;96556.97;5022619;28;19917;-78
2023/02/11 02:32:26;;;;;;;;;;;;;;;-2.79;48.16;96540.31;5024511;28;19923;-79
2023/02/11 02:34:57;;;;;;;;;;;;;;;-2.81;48.44;96567.56;5023722;28;20363;-79
2023/02/11 02:37:31;;;;;;;;;;;;;;;-2.82;48.41;96562.44;5024280;28;19913;-78
2023/02/11 02:39:57;;;;;;;;;;;;;;;-2.86;48.74;96556.91;5024808;28;20003;-77
2023/02/11 02:42:23;;;;;;;;;;;;;;;-2.88;48.53;96558.31;5027983;28;19917;-79
2023/02/11 02:44:48;;;;;;;;;;;;;;;-2.91;48.86;96558.94;5023845;28;19924;-79
2023/02/11 02:47:14;;;;;;;;;;;;;;;-3.02;48.81;96559.22;5030326;28;19912;-78
2023/02/11 02:49:39;;;;;;;;;;;;;;;-3.05;49.21;96561.72;5023012;28;20016;-77
2023/02/11 02:52:07;;;;;;;;;;;;;;;-3.14;49.39;96556.31;5025246;28;19931;-78
2023/02/11 02:54:47;;;;;;;;;;;;;;;-3.18;49.45;96563.41;5030611;28;19913;-79
2023/02/11 02:57:13;;;;;;;;;;;;;;;-3.28;49.96;96563.66;5024883;28;19917;-78
2023/02/11 02:59:44;;;;;;;;;;;;;;;-3.30;49.92;96557.81;5023304;28;19947;-78
2023/02/11 03:02:21;;;;;;;;;;;;;;;-3.38;50.08;96562.06;5033013;28;19966;-79
2023/02/11 03:04:49;;;;;;;;;;;;;;;-3.44;50.18;96555.22;5045147;28;20437;-78
2023/02/11 03:07:14;;;;;;;;;;;;;;;-3.49;50.52;96555.34;5044517;28;19992;-81
2023/02/11 03:09:46;;;;;;;;;;;;;;;-3.49;50.12;96560.72;5044488;28;20011;-78
2023/02/11 03:12:11;;;;;;;;;;;;;;;-3.41;50.26;96561.84;5042871;28;20382;-80
2023/02/11 03:14:36;;;;;;;;;;;;;;;-3.38;49.77;96559.38;5025624;28;19971;-79
2023/02/11 03:17:03;;;;;;;;;;;;;;;-3.35;49.71;96563.31;5026497;28;19913;-79
2023/02/11 03:19:29;;;;;;;;;;;;;;;-3.33;50.02;96556.53;5027704;28;19917;-77
2023/02/11 03:21:55;;;;;;;;;;;;;;;-3.34;49.60;96559.53;5027239;28;19996;-77
2023/02/11 03:24:28;;;;;;;;;;;;;;;-3.37;49.69;96554.78;5009541;28;19945;-78
2023/02/11 03:26:54;;;;;;;;;;;;;;;-3.40;50.20;96566.13;5027048;28;19975;-78
2023/02/11 03:29:22;;;;;;;;;;;;;;;-3.41;50.08;96559.97;5042668;28;19921;-77
2023/02/11 03:32:08;;;;;;;;;;;;;;;-3.43;49.86;96561.38;5027963;28;19979;-78
2023/02/11 03:34:40;;;;;;;;;;;;;;;-3.44;49.92;96560.59;5030801;28;19921;-78
2023/02/11 03:37:19;;;;;;;;;;;;;;;-3.44;49.88;96562.47;5043025;28;19913;-79
2023/02/11 03:39:52;;;;;;;;;;;;;;;-3.44;49.91;96554.41;5030546;28;19917;-77
2023/02/11 03:42:18;;;;;;;;;;;;;;;-3.35;50.06;96557.94;5027956;28;20244;-77
2023/02/11 03:44:45;;;;;;;;;;;;;;;-3.33;49.59;96547.66;5020346;28;19991;-76
2023/02/11 03:47:10;;;;;;;;;;;;;;;-3.32;49.80;96557.34;5027008;28;19913;-77
2023/02/11 03:49:36;;;;;;;;;;;;;;;-3.33;49.35;96553.03;5026639;28;19913;-79
2023/02/11 03:52:01;;;;;;;;;;;;;;;-3.25;49.38;96563.06;5037024;28;20360;-78
2023/02/11 03:54:27;;;;;;;;;;;;;;;-3.22;49.52;96560.53;5027159;28;19921;-77
2023/02/11 03:56:55;;;;;;;;;;;;;;;-3.17;48.97;96565.00;5043472;28;19913;-77
2023/02/11 03:59:20;;;;;;;;;;;;;;;-3.16;48.93;96566.56;5043750;28;20473;-78
2023/02/11 04:01:46;;;;;;;;;;;;;;;-3.15;49.05;96570.88;5027836;28;20628;-78
2023/02/11 04:04:11;;;;;;;;;;;;;;;-3.12;49.11;96564.88;5052204;28;19924;-77
2023/02/11 04:06:36;;;;;;;;;;;;;;;-3.13;49.29;96559.81;5027275;28;19920;-78
2023/02/11 04:09:01;;;;;;;;;;;;;;;-3.23;49.32;96560.84;5026496;28;19913;-77
2023/02/11 04:11:27;;;;;;;;;;;;;;;-3.26;49.07;96558.78;5026542;28;19935;-77
2023/02/11 04:13:52;;;;;;;;;;;;;;;-3.23;49.49;96558.94;5027989;28;19917;-77
2023/02/11 04:16:17;;;;;;;;;;;;;;;-3.17;49.36;96562.31;5009428;28;20288;-76
2023/02/11 04:18:42;;;;;;;;;;;;;;;-3.14;48.93;96552.84;5025923;28;19945;-77
2023/02/11 04:21:08;;;;;;;;;;;;;;;-3.13;49.17;96551.72;5026770;28;19966;-76
2023/02/11 04:23:33;;;;;;;;;;;;;;;-3.07;49.19;96556.66;5051475;28;19916;-77
2023/02/11 04:25:58;;;;;;;;;;;;;;;-3.06;48.67;96552.06;5059218;28;19944;-78
2023/02/11 04:28:25;;;;;;;;;;;;;;;-3.13;49.12;96544.44;5026764;28;19917;-79
2023/02/11 04:30:50;;;;;;;;;;;;;;;-3.04;48.74;96552.53;5026443;28;19923;-76
2023/02/11 04:33:16;;;;;;;;;;;;;;;-2.94;48.62;96549.59;5027217;28;19920;-78
2023/02/11 04:35:41;;;;;;;;;;;;;;;-3.02;48.88;96534.22;5015187;28;19952;-78
2023/02/11 04:38:06;;;;;;;;;;;;;;;-2.99;48.65;96557.78;5031415;28;20298;-77
2023/02/11 04:40:31;;;;;;;;;;;;;;;-3.08;49.18;96548.91;5026778;28;19963;-77
2023/02/11 04:42:57;;;;;;;;;;;;;;;-3.14;48.98;96547.47;5026677;28;19925;-80
2023/02/11 04:45:22;;;;;;;;;;;;;;;-3.20;49.23;96549.50;5025442;28;20284;-79
2023/02/11 04:47:47;;;;;;;;;;;;;;;-3.19;49.40;96545.69;5026990;28;19913;-77
2023/02/11 04:50:13;;;;;;;;;;;;;;;-3.15;49.33;96545.84;5039788;28;19928;-77
2023/02/11 04:52:38;;;;;;;;;;;;;;;-3.17;49.46;96540.78;5039596;28;19966;-78
2023/02/11 04:55:03;;;;;;;;;;;;;;;-3.20;49.28;96544.09;5045655;28;19964;-78
2023/02/11 04:57:28;;;;;;;;;;;;;;;-3.19;49.62;96551.06;5019584;28;19967;-78
2023/02/11 04:59:54;;;;;;;;;;;;;;;-3.34;49.48;96525.34;5027896;28;19944;-78
2023/02/11 05:02:19;;;;;;;;;;;;;;;-3.25;49.52;96545.03;5027483;28;19913;-78
2023/02/11 05:04:44;;;;;;;;;;;;;;;-3.35;49.51;96539.13;5008368;28;19978;-77
2023/02/11 05:07:10;;;;;;;;;;;;;;;-3.51;49.99;96534.13;5026361;28;19913;-78
2023/02/11 05:09:35;;;;;;;;;;;;;;;-3.52;50.02;96534.44;5008301;28;19999;-77
2023/02/11 05:12:00;;;;;;;;;;;;;;;-3.58;50.54;96535.66;5024899;28;19936;-77
2023/02/11 05:14:25;;;;;;;;;;;;;;;-3.65;50.65;96524.56;5024509;28;19921;-78
2023/02/11 05:16:51;;;;;;;;;;;;;;;-3.70;51.00;96530.06;5027981;28;19932;-78
2023/02/11 05:19:16;;;;;;;;;;;;;;;-3.76;50.89;96532.06;5024851;28;20289;-77
2023/02/11 05:21:41;;;;;;;;;;;;;;;-3.76;50.98;96532.84;5025231;28;19963;-79
2023/02/11 05:24:06;;;;;;;;;;;;;;;-3.78;50.86;96534.28;5025588;28;19917;-77
2023/02/11 05:26:32;;;;;;;;;;;;;;;-3.79;51.16;96532.66;5024369;28;20561;-78
2023/02/11 05:28:57;;;;;;;;;;;;;;;-3.74;50.56;96525.28;5028706;28;19997;-76
2023/02/11 05:31:22;;;;;;;;;;;;;;;-3.66;50.42;96536.41;5030735;28;19917;-78
2023/02/11 05:33:47;;;;;;;;;;;;;;;-3.65;50.43;96528.03;5032438;28;19960;-79
2023/02/11 05:36:13;;;;;;;;;;;;;;;-3.66;50.42;96531.81;5044044;28;20248;-77
2023/02/11 05:38:38;;;;;;;;;;;;;;;-3.71;50.58;96526.56;5025062;28;20371;-76
2023/02/11 05:41:04;;;;;;;;;;;;;;;-3.65;50.00;96529.94;5029349;28;19917;-76
2023/02/11 05:43:29;;;;;;;;;;;;;;;-3.62;50.10;96540.84;5023950;28;19991;-78
2023/02/11 05:45:55;;;;;;;;;;;;;;;-3.62;49.83;96530.09;5024352;28;19913;-77
2023/02/11 05:48:20;;;;;;;;;;;;;;;-3.50;49.51;96541.09;5025079;28;19923;-77
2023/02/11 05:50:45;;;;;;;;;;;;;;;-3.45;48.98;96547.44;5026074;28;19921;-78
2023/02/11 05:53:10;;;;;;;;;;;;;;;-3.41;48.83;96540.34;5045114;28;19960;-78
2023/02/11 05:55:36;;;;;;;;;;;;;;;-3.35;48.93;96550.66;5043353;28;19919;-78
2023/02/11 05:58:01;;;;;;;;;;;;;;;-3.31;48.45;96543.56;5044180;28;20003;-76
2023/02/11 06:00:26;;;;;;;;;;;;;;;-3.39;48.05;96541.63;5026875;28;19927;-77
2023/02/11 06:02:52;;;;;;;;;;;;;;;-3.32;48.37;96552.75;5038538;28;19917;-78
2023/02/11 06:05:17;;;;;;;;;;;;;;;-3.34;48.00;96559.53;5025144;28;19921;-76
2023/02/11 06:07:42;;;;;;;;;;;;;;;-3.34;48.09;96552.25;5022813;28;19921;-78
2023/02/11 06:10:08;;;;;;;;;;;;;;;-3.38;48.18;96553.97;5023731;28;19948;-78
2023/02/11 06:12:33;;;;;;;;;;;;;;;-3.44;48.53;96551.69;5024545;28;19921;-77
2023/02/11 06:14:58;;;;;;;;;;;;;;;-3.40;47.97;96555.38;5027470;28;19924;-80
2023/02/11 06:17:24;;;;;;;;;;;;;;;-3.42;48.04;96550.31;5025133;28;19927;-79
2023/02/11 06:19:49;;;;;;;;;;;;;;;-3.38;47.79;96553.16;5023862;28;19928;-78
2023/02/11 06:22:14;;;;;;;;;;;;;;;-3.42;47.96;96555.69;5028352;28;19925;-77
2023/02/11 06:24:40;;;;;;;;;;;;;;;-3.45;48.11;96553.59;5023752;28;19987;-77
2023/02/11 06:27:05;;;;;;;;;;;;;;;-3.47;47.63;96564.69;5024970;28;19913;-79
2023/02/11 06:29:31;;;;;;;;;;;;;;;-3.47;47.87;96553.91;5023724;28;20282;-78
2023/02/11 06:31:56;;;;;;;;;;;;;;;-3.43;47.40;96564.06;5025816;28;19923;-78
2023/02/11 06:34:21;;;;;;;;;;;;;;;-3.35;47.31;96569.50;5026055;28;19978;-77
2023/02/11 06:36:46;;;;;;;;;;;;;;;-3.28;47.28;96569.03;5026709;28;20262;-79
2023/02/11 06:39:12;;;;;;;;;;;;;;;-3.23;47.35;96567.03;5044534;28;19932;-78
2023/02/11 06:41:37;;;;;;;;;;;;;;;-3.17;47.07;96565.00;5016293;28;19921;-78
2023/02/11 06:44:03;;;;;;;;;;;;;;;-3.11;46.98;96571.03;5024622;28;19952;-81
2023/02/11 06:46:28;;;;;;;;;;;;;;;-3.03;46.95;96573.78;5021361;28;19920;-76
2023/02/11 06:48:53;;;;;;;;;;;;;;;-2.98;46.97;96565.56;5023379;28;19960;-78
2023/02/11 06:51:18;;;;;;;;;;;;;;;-2.91;47.10;96572.41;5027939;28;19913;-77
2023/02/11 06:53:44;;;;;;;;;;;;;;;-2.82;46.95;96567.84;5028291;28;20483;-79
2023/02/11 06:56:16;;;;;;;;;;;;;;;-2.81;47.08;96569.41;5027119;28;19963;-76
2023/02/11 06:58:42;;;;;;;;;;;;;;;-2.72;47.10;96571.03;5027181;28;19913;-76
2023/02/11 07:01:08;;;;;;;;;;;;;;;-2.62;46.91;96566.50;5026130;28;19925;-76
2023/02/11 07:03:35;;;;;;;;;;;;;;;-2.51;46.48;96568.59;5027653;28;20319;-77
2023/02/11 07:06:00;;;;;;;;;;;;;;;-2.44;46.82;96566.22;5026473;28;20007;-78
2023/02/11 07:08:25;;;;;;;;;;;;;;;-2.35;46.67;96568.13;5026788;28;20003;-79
2023/02/11 07:10:51;;;;;;;;;;;;;;;-2.22;46.23;96569.91;5033997;28;19917;-80
2023/02/11 07:13:16;;;;;;;;;;;;;;;-2.13;46.20;96565.31;5047875;28;19962;-78
2023/02/11 07:15:41;;;;;;;;;;;;;;;-2.05;46.02;96556.47;5030134;28;19912;-80
2023/02/11 07:18:06;;;;;;;;;;;;;;;-1.94;46.10;96551.56;5045969;28;20081;-78
2023/02/11 07:20:32;;;;;;;;;;;;;;;-1.79;45.63;96561.06;5026324;28;19974;-77
2023/02/11 07:22:58;;;;;;;;;;;;;;;-1.59;45.09;96557.72;5027872;28;19924;-77
2023/02/11 07:25:24;;;;;;;;;;;;;;;-1.37;44.82;96556.75;5027989;28;20020;-78
2023/02/11 07:27:49;;;;;;;;;;;;;;;-1.23;44.68;96545.75;5026369;28;20427;-77
2023/02/11 07:30:15;;;;;;;;;;;;;;;-1.18;44.99;96549.06;5032263;28;19920;-78
2023/02/11 07:32:40;;;;;;;;;;;;;;;-1.04;44.83;96542.66;5048058;28;19913;-78
2023/02/11 07:35:05;;;;;;;;;;;;;;;-0.84;44.62;96548.16;5035226;28;19931;-77
2023/02/11 07:37:32;;;;;;;;;;;;;;;-0.66;44.39;96545.38;5031344;28;19921;-76
2023/02/11 07:39:57;;;;;;;;;;;;;;;-0.52;43.93;96545.94;5036801;28;19916;-77
2023/02/11 07:42:22;;;;;;;;;;;;;;;-0.35;43.60;96537.72;5033264;28;19959;-77
2023/02/11 07:44:48;;;;;;;;;;;;;;;-0.13;43.47;96538.53;5045396;28;20363;-78
2023/02/11 07:47:13;;;;;;;;;;;;;;;0.01;43.62;96535.59;5043439;28;19913;-78
2023/02/11 07:49:38;;;;;;;;;;;;;;;0.18;42.97;96530.84;5031462;28;19917;-76
2023/02/11 07:52:05;;;;;;;;;;;;;;;0.29;43.04;96523.13;5035738;28;19924;-77
2023/02/11 07:54:30;;;;;;;;;;;;;;;0.42;42.93;96524.75;5009932;28;19921;-76
2023/02/11 07:56:55;;;;;;;;;;;;;;;0.47;42.70;96526.44;5031315;28;20288;-77
2023/02/11 07:59:21;;;;;;;;;;;;;;;0.61;42.49;96528.84;5043523;28;20070;-79
2023/02/11 08:01:46;;;;;;;;;;;;;;;0.81;42.33;96529.94;5026589;28;19913;-77
2023/02/11 08:04:11;;;;;;;;;;;;;;;0.97;42.22;96528.94;5031838;28;19917;-76
2023/02/11 08:06:39;;;;;;;;;;;;;;;1.25;41.72;96531.00;5038342;28;19971;-79
2023/02/11 08:09:05;;;;;;;;;;;;;;;1.61;41.06;96530.22;5044124;28;19921;-80
2023/02/11 08:11:30;;;;;;;;;;;;;;;1.75;40.40;96532.56;5040171;28;19917;-79
2023/02/11 08:13:56;;;;;;;;;;;;;;;2.11;39.81;96523.56;5041754;28;19920;-80
2023/02/11 08:16:25;;;;;;;;;;;;;;;2.40;39.48;96527.88;5035227;28;19963;-79
2023/02/11 08:18:51;;;;;;;;;;;;;;;2.75;38.79;96522.63;5031165;28;19956;-79
2023/02/11 08:21:16;;;;;;;;;;;;;;;3.09;38.17;96523.13;5034169;28;19963;-81
2023/02/11 08:23:42;;;;;;;;;;;;;;;3.36;37.92;96527.69;5043800;28;20058;-78
2023/02/11 08:26:12;;;;;;;;;;;;;;;3.76;37.25;96526.69;5025849;28;20379;-79
2023/02/11 08:28:38;;;;;;;;;;;;;;;4.27;36.21;96523.91;5030518;28;19913;-79
2023/02/11 08:31:04;;;;;;;;;;;;;;;4.68;35.42;96525.13;5056818;28;19956;-77
2023/02/11 08:33:29;;;;;;;;;;;;;;;4.93;34.92;96520.16;5062749;28;19974;-78
2023/02/11 08:35:54;;;;;;;;;;;;;;;5.11;34.54;96520.47;5033125;28;19921;-80
2023/02/11 08:38:19;;;;;;;;;;;;;;;5.49;34.07;96527.72;5008762;28;20019;-79
2023/02/11 08:40:45;;;;;;;;;;;;;;;5.87;33.67;96520.50;5026358;28;19917;-80
2023/02/11 08:43:10;;;;;;;;;;;;;;;6.20;32.80;96524.50;5026723;28;19948;-80
2023/02/11 08:45:36;;;;;;;;;;;;;;;6.30;32.12;96515.66;5026600;28;20356;-79
2023/02/11 08:48:01;;;;;;;;;;;;;;;6.54;32.37;96520.66;5042321;28;19970;-79
2023/02/11 08:50:27;;;;;;;;;;;;;;;6.78;31.51;96519.38;5026425;28;19920;-80
2023/02/11 08:52:52;;;;;;;;;;;;;;;7.08;30.78;96524.75;5031455;28;19925;-79
2023/02/11 08:55:17;;;;;;;;;;;;;;;7.36;30.41;96518.78;5046663;28;19917;-80
2023/02/11 08:57:43;;;;;;;;;;;;;;;7.72;29.69;96525.31;5041297;28;19917;-80
2023/02/11 09:00:09;;;;;;;;;;;;;;;8.17;29.00;96519.75;5027510;28;19939;-78
2023/02/11 09:02:35;;;;;;;;;;;;;;;8.62;28.19;96517.66;5032386;28;20379;-79
2023/02/11 09:05:00;;;;;;;;;;;;;;;8.89;27.77;96520.84;5026248;28;19947;-79
2023/02/11 09:07:26;;;;;;;;;;;;;;;9.37;27.09;96509.59;5029736;28;19988;-79
2023/02/11 09:09:52;;;;;;;;;;;;;;;9.80;25.88;96513.91;5025809;28;19913;-80
2023/02/11 09:12:17;;;;;;;;;;;;;;;9.88;25.61;96506.47;5026634;28;20576;-81
2023/02/11 09:14:42;;;;;;;;;;;;;;;9.91;25.52;96507.63;5035975;28;20447;-78
2023/02/11 09:17:07;;;;;;;;;;;;;;;9.60;25.23;96509.22;5030623;28;19921;-79
2023/02/11 09:19:33;;;;;;;;;;;;;;;10.00;25.00;96506.06;5026068;28;20447;-79
2023/02/11 09:21:58;;;;;;;;;;;;;;;11.09;24.11;96508.03;5024725;28;19917;-80
2023/02/11 09:24:23;;;;;;;;;;;;;;;11.95;22.76;96497.19;5045798;28;19917;-81
2023/02/11 09:26:49;;;;;;;;;;;;;;;13.20;21.98;96501.25;5051411;28;19948;-81
2023/02/11 09:29:14;;;;;;;;;;;;;;;13.94;20.26;96495.81;5037534;28;19921;-80
2023/02/11 09:31:39;;;;;;;;;;;;;;;15.31;19.11;96506.56;5026683;28;19913;-80
2023/02/11 09:34:04;;;;;;;;;;;;;;;17.65;17.63;96507.03;5041625;28;20339;-79
2023/02/11 09:36:31;;;;;;;;;;;;;;;19.84;15.39;96506.44;5023847;28;19940;-78
2023/02/11 09:38:57;;;;;;;;;;;;;;;20.87;13.82;96501.28;5068352;28;20002;-79
2023/02/11 09:41:22;;;;;;;;;;;;;;;22.21;13.33;96501.03;5044964;28;19955;-80
2023/02/11 09:43:48;;;;;;;;;;;;;;;23.95;12.17;96499.38;5044299;28;19963;-77
2023/02/11 09:46:14;;;;;;;;;;;;;;;25.08;11.12;96482.69;5045640;28;19913;-80
2023/02/11 09:48:40;;;;;;;;;;;;;;;26.12;10.24;96485.31;5039106;28;19913;-79
2023/02/11 09:51:05;;;;;;;;;;;;;;;26.76;9.70;96485.88;5027431;28;20059;-79
2023/02/11 09:53:33;;;;;;;;;;;;;;;27.62;9.04;96482.72;5037948;28;19999;-81
2023/02/11 09:55:59;;;;;;;;;;;;;;;28.40;8.81;96479.81;5043972;28;19989;-78
2023/02/11 09:58:32;;;;;;;;;;;;;;;28.38;8.16;96473.13;5030483;28;19954;-79
2023/02/11 10:01:00;;;;;;;;;;;;;;;27.91;8.44;96461.66;5030987;28;19920;-78
2023/02/11 10:03:28;;;;;;;;;;;;;;;27.84;8.41;96453.72;5026053;28;20063;-76
2023/02/11 10:06:12;;;;;;;;;;;;;;;28.69;8.47;96458.63;5024873;28;19924;-76
2023/02/11 10:08:45;;;;;;;;;;;;;;;29.66;7.67;96451.06;5023769;28;19917;-77
2023/02/11 10:11:15;;;;;;;;;;;;;;;30.39;6.74;96440.53;5028322;28;19917;-77
2023/02/11 10:13:40;;;;;;;;;;;;;;;30.92;6.38;96440.13;5024761;28;19913;-78
2023/02/11 10:16:21;;;;;;;;;;;;;;;30.89;6.71;96430.59;5023325;28;20027;-77
2023/02/11 10:18:49;;;;;;;;;;;;;;;31.33;6.44;96431.28;5032202;28;19956;-88
2023/02/11 10:21:17;;;;;;;;;;;;;;;32.02;6.33;96429.59;5038156;28;19913;-89
2023/02/11 10:23:44;;;;;;;;;;;;;;;32.20;6.11;96413.75;5052816;28;20357;-85
2023/02/11 10:26:11;;;;;;;;;;;;;;;31.77;6.01;96403.38;5025289;28;19920;-80
2023/02/11 10:28:37;;;;;;;;;;;;;;;31.44;6.09;96397.00;5032046;28;19924;-78
2023/02/11 10:31:07;;;;;;;;;;;;;;;31.40;6.24;96390.88;5027631;28;19931;-84
2023/02/11 10:33:56;;;;;;;;;;;;;;;31.53;5.93;96387.28;5035727;28;19968;-85
2023/02/11 10:36:22;;;;;;;;;;;;;;;31.12;6.41;96374.25;5028239;28;19913;-84
2023/02/11 10:38:48;;;;;;;;;;;;;;;31.33;6.39;96370.88;5042958;28;19956;-83
2023/02/11 10:41:16;;;;;;;;;;;;;;;31.08;5.80;96359.63;5028214;28;19956;-82
2023/02/11 10:43:41;;;;;;;;;;;;;;;31.41;5.69;96352.63;5040507;28;19936;-83
2023/02/11 10:46:09;;;;;;;;;;;;;;;30.54;6.10;96354.19;5025666;28;20384;-83
2023/02/11 10:48:36;;;;;;;;;;;;;;;29.58;6.74;96340.38;5042642;28;19913;-84
2023/02/11 10:51:07;;;;;;;;;;;;;;;29.67;7.05;96339.25;5042940;28;19916;-83
2023/02/11 10:53:34;;;;;;;;;;;;;;;29.94;6.95;96331.75;5025367;28;19920;-78
2023/02/11 10:55:59;;;;;;;;;;;;;;;30.53;6.74;96321.47;5023523;28;19967;-79
2023/02/11 10:58:27;;;;;;;;;;;;;;;30.88;6.54;96329.72;5024323;28;19917;-79
2023/02/11 11:00:53;;;;;;;;;;;;;;;30.50;6.74;96331.81;5039800;28;20350;-79
2023/02/11 11:03:19;;;;;;;;;;;;;;;29.13;7.24;96317.34;5039821;28;20020;-79
2023/02/11 11:05:48;;;;;;;;;;;;;;;29.32;7.05;96313.31;5053979;28;20442;-78
2023/02/11 11:08:14;;;;;;;;;;;;;;;29.94;7.01;96315.50;5043683;28;19982;-79
2023/02/11 11:10:42;;;;;;;;;;;;;;;29.66;6.94;96309.41;5047544;28;20407;-79
2023/02/11 11:13:23;;;;;;;;;;;;;;;29.18;6.87;96308.81;5027940;28;19916;-78
2023/02/11 11:16:05;;;;;;;;;;;;;;;28.26;7.49;96305.56;5042672;28;19952;-78
2023/02/11 11:18:30;;;;;;;;;;;;;;;27.58;7.83;96304.28;5028716;28;19921;-77
2023/02/11 11:21:00;;;;;;;;;;;;;;;26.42;8.35;96290.47;5031518;28;20027;-83
2023/02/11 11:23:25;;;;;;;;;;;;;;;25.56;8.78;96296.28;5038103;28;19919;-81
2023/02/11 11:26:10;;;;;;;;;;;;;;;25.34;9.56;96294.09;5041484;28;19916;-79
2023/02/11 11:28:49;;;;;;;;;;;;;;;24.80;9.59;96293.19;5025158;28;20741;-80
2023/02/11 11:31:21;;;;;;;;;;;;;;;24.49;10.05;96282.72;5029505;28;19967;-79
2023/02/11 11:33:47;;;;;;;;;;;;;;;24.97;9.75;96285.66;5039070;28;19913;-78
2023/02/11 11:36:13;;;;;;;;;;;;;;;24.95;9.98;96284.63;5040024;28;19924;-77
2023/02/11 11:38:54;;;;;;;;;;;;;;;25.84;9.39;96281.56;5027097;28;19920;-78
2023/02/11 11:41:22;;;;;;;;;;;;;;;26.83;8.63;96282.28;5029566;28;19920;-78
2023/02/11 11:43:58;;;;;;;;;;;;;;;27.71;8.11;96281.94;5036995;28;19931;-83
2023/02/11 11:46:26;;;;;;;;;;;;;;;28.10;7.87;96287.41;5028585;28;20007;-80
2023/02/11 11:48:51;;;;;;;;;;;;;;;28.53;7.88;96273.53;5032264;28;19917;-84
2023/02/11 11:51:16;;;;;;;;;;;;;;;28.38;7.46;96272.34;5044477;28;19917;-83
2023/02/11 11:54:02;;;;;;;;;;;;;;;28.47;7.32;96277.72;5026338;28;20358;-84
2023/02/11 11:56:34;;;;;;;;;;;;;;;28.45;7.14;96272.59;5027558;28;20027;-85
2023/02/11 11:59:00;;;;;;;;;;;;;;;28.05;7.50;96263.53;5033042;28;19921;-87
2023/02/11 12:01:44;;;;;;;;;;;;;;;27.36;7.47;96248.66;5026911;28;19920;-79
2023/02/11 12:04:13;;;;;;;;;;;;;;;26.68;7.63;96254.34;5026278;28;19917;-74
2023/02/11 12:06:40;;;;;;;;;;;;;;;25.71;8.10;96245.41;5037329;28;19917;-78
2023/02/11 12:09:08;;;;;;;;;;;;;;;25.79;7.91;96237.25;5030715;28;19935;-77
2023/02/11 12:11:39;;;;;;;;;;;;;;;26.79;7.79;96242.31;5030956;28;19924;-81
2023/02/11 12:14:07;;;;;;;;;;;;;;;25.90;8.26;96229.63;5028870;28;20000;-78
2023/02/11 12:16:51;;;;;;;;;;;;;;;21.74;10.58;96226.22;5033110;28;19981;-82
2023/02/11 12:19:17;;;;;;;;;;;;;;;20.22;11.82;96220.50;5034400;28;20446;-78
2023/02/11 12:21:46;;;;;;;;;;;;;;;17.57;13.42;96208.22;5027586;28;20328;-76
2023/02/11 12:24:17;;;;;;;;;;;;;;;16.46;14.30;96211.94;5028096;28;19921;-80
2023/02/11 12:26:42;;;;;;;;;;;;;;;15.41;15.10;96200.72;5031347;28;20645;-88
2023/02/11 12:29:13;;;;;;;;;;;;;;;13.85;16.10;96197.03;5031457;28;19967;-78
2023/02/11 12:31:43;;;;;;;;;;;;;;;12.48;17.51;96190.47;5029869;28;20030;-79
2023/02/11 12:34:27;;;;;;;;;;;;;;;11.57;18.86;96187.84;5032576;28;19917;-78
2023/02/11 12:37:11;;;;;;;;;;;;;;;10.87;19.53;96191.00;5031957;28;19974;-80
2023/02/11 12:39:36;;;;;;;;;;;;;;;10.76;20.19;96182.06;5034597;28;19917;-80
2023/02/11 12:44:57;;;;;;;;;;;;;;;9.60;22.65;96172.31;5030844;28;20406;-81
2023/02/11 12:47:41;;;;;;;;;;;;;;;9.11;23.54;96176.81;5034056;28;20014;-81
2023/02/11 12:50:25;;;;;;;;;;;;;;;8.85;24.03;96177.31;5031809;28;19920;-82
2023/02/11 12:52:50;;;;;;;;;;;;;;;8.62;24.35;96166.78;5035758;28;20358;-80
2023/02/11 12:55:18;;;;;;;;;;;;;;;8.45;24.25;96163.66;5030949;28;19921;-76
2023/02/11 12:57:43;;;;;;;;;;;;;;;8.36;23.91;96162.47;5024382;28;19921;-79